PRIVATE WETTERSTATION BILLIGHEIM-ALLFELD                       ZURCK
Wetterdaten: Sonntag, 26.03.2017
Datum Zeit Temp. A. Temp. A. min Temp. A. max Feuchte A. Luftdruck Regen Wind Richtung Richtung Sonnenschein ET Solar Taupunkt Windchill Windben Empfang
26.03.2017 00:00 7,3 C 7,3 C 7,4 C 62 % 1021,0 hPa 0,0 l/m 0,0 km/h (0 Bft) O-NO 67 0 min 0,025 mm 0 W/m 0,5 C 7,3 C 11,3 km/h (2 Bft) 100 %
26.03.2017 00:10 7,2 C 7,2 C 7,3 C 63 % 1021,0 hPa 0,0 l/m 1,6 km/h (1 Bft) NO 45 0 min 0,000 mm 0 W/m 0,6 C 7,2 C 14,5 km/h (3 Bft) 100 %
26.03.2017 00:20 7,1 C 7,1 C 7,2 C 63 % 1021,0 hPa 0,0 l/m 0,0 km/h (0 Bft) NO 45 0 min 0,000 mm 0 W/m 0,5 C 7,1 C 4,8 km/h (1 Bft) 100 %
26.03.2017 00:30 6,9 C 6,9 C 7,1 C 64 % 1020,8 hPa 0,0 l/m 1,6 km/h (1 Bft) NO 45 0 min 0,000 mm 0 W/m 0,6 C 6,9 C 8,0 km/h (2 Bft) 100 %
26.03.2017 00:40 6,8 C 6,8 C 6,9 C 65 % 1020,8 hPa 0,0 l/m 1,6 km/h (1 Bft) NO 45 0 min 0,000 mm 0 W/m 0,7 C 6,8 C 8,0 km/h (2 Bft) 100 %
26.03.2017 00:50 6,7 C 6,7 C 6,8 C 66 % 1020,7 hPa 0,0 l/m 0,0 km/h (0 Bft) N-NO 22 0 min 0,000 mm 0 W/m 0,8 C 6,7 C 6,4 km/h (2 Bft) 100 %
26.03.2017 01:00 6,5 C 6,5 C 6,7 C 67 % 1020,7 hPa 0,0 l/m 0,0 km/h (0 Bft) N 0 0 min 0,025 mm 0 W/m 0,8 C 6,5 C 0,0 km/h (0 Bft) 100 %
26.03.2017 01:10 6,2 C 6,2 C 6,5 C 68 % 1020,7 hPa 0,0 l/m 0,0 km/h (0 Bft) N 0 0 min 0,000 mm 0 W/m 0,7 C 6,2 C 0,0 km/h (0 Bft) 100 %
26.03.2017 01:20 5,9 C 5,9 C 6,2 C 70 % 1020,6 hPa 0,0 l/m 1,6 km/h (1 Bft) NO 45 0 min 0,000 mm 0 W/m 0,9 C 5,9 C 6,4 km/h (2 Bft) 100 %
26.03.2017 01:30 5,8 C 5,8 C 5,9 C 70 % 1020,6 hPa 0,0 l/m 1,6 km/h (1 Bft) NO 45 0 min 0,000 mm 0 W/m 0,8 C 5,8 C 6,4 km/h (2 Bft) 100 %
26.03.2017 01:40 5,8 C 5,8 C 5,8 C 70 % 1020,6 hPa 0,0 l/m 0,0 km/h (0 Bft) NO 45 0 min 0,000 mm 0 W/m 0,8 C 5,8 C 6,4 km/h (2 Bft) 100 %
26.03.2017 01:50 5,6 C 5,6 C 5,8 C 71 % 1020,7 hPa 0,0 l/m 0,0 km/h (0 Bft) NO 45 0 min 0,000 mm 0 W/m 0,8 C 5,6 C 1,6 km/h (1 Bft) 100 %
26.03.2017 03:00 5,4 C 5,4 C 5,6 C 71 % 1020,7 hPa 0,0 l/m 0,0 km/h (0 Bft) NO 45 0 min 0,025 mm 0 W/m 0,6 C 5,4 C 1,6 km/h (1 Bft) 99 %
26.03.2017 03:10 5,3 C 5,3 C 5,5 C 72 % 1020,5 hPa 0,0 l/m 0,0 km/h (0 Bft) NO 45 0 min 0,000 mm 0 W/m 0,7 C 5,3 C 1,6 km/h (1 Bft) 100 %
26.03.2017 03:20 5,1 C 5,1 C 5,3 C 72 % 1020,5 hPa 0,0 l/m 0,0 km/h (0 Bft) N 0 0 min 0,000 mm 0 W/m 0,5 C 5,1 C 0,0 km/h (0 Bft) 100 %
26.03.2017 03:30 5,0 C 5,0 C 5,1 C 72 % 1020,5 hPa 0,0 l/m 0,0 km/h (0 Bft) N-NO 22 0 min 0,000 mm 0 W/m 0,4 C 5,0 C 3,2 km/h (1 Bft) 100 %
26.03.2017 03:40 4,9 C 4,9 C 5,0 C 72 % 1020,4 hPa 0,0 l/m 0,0 km/h (0 Bft) N-NO 22 0 min 0,000 mm 0 W/m 0,3 C 4,9 C 1,6 km/h (1 Bft) 100 %
26.03.2017 03:50 4,9 C 4,9 C 4,9 C 72 % 1020,4 hPa 0,0 l/m 0,0 km/h (0 Bft) N-NO 22 0 min 0,000 mm 0 W/m 0,3 C 4,9 C 9,7 km/h (2 Bft) 100 %
26.03.2017 04:00 4,8 C 4,8 C 4,9 C 72 % 1020,2 hPa 0,0 l/m 0,0 km/h (0 Bft) N 0 0 min 0,025 mm 0 W/m 0,2 C 4,8 C 0,0 km/h (0 Bft) 100 %
26.03.2017 04:10 4,6 C 4,6 C 4,8 C 73 % 1020,3 hPa 0,0 l/m 0,0 km/h (0 Bft) N 0 0 min 0,000 mm 0 W/m 0,2 C 4,6 C 0,0 km/h (0 Bft) 99 %
26.03.2017 04:20 4,3 C 4,3 C 4,6 C 74 % 1020,3 hPa 0,0 l/m 0,0 km/h (0 Bft) N-NO 22 0 min 0,000 mm 0 W/m 0,1 C 4,3 C 1,6 km/h (1 Bft) 100 %
26.03.2017 04:30 4,2 C 4,2 C 4,3 C 74 % 1020,4 hPa 0,0 l/m 0,0 km/h (0 Bft) N 0 0 min 0,000 mm 0 W/m -0,0 C 4,2 C 0,0 km/h (0 Bft) 100 %
26.03.2017 04:40 4,1 C 4,1 C 4,2 C 74 % 1020,3 hPa 0,0 l/m 0,0 km/h (0 Bft) N 0 0 min 0,000 mm 0 W/m -0,1 C 4,1 C 0,0 km/h (0 Bft) 100 %
26.03.2017 04:50 4,0 C 4,0 C 4,1 C 74 % 1020,4 hPa 0,0 l/m 0,0 km/h (0 Bft) N 0 0 min 0,000 mm 0 W/m -0,2 C 4,0 C 0,0 km/h (0 Bft) 100 %
26.03.2017 05:00 3,9 C 3,9 C 4,1 C 75 % 1020,5 hPa 0,0 l/m 0,0 km/h (0 Bft) N 0 0 min 0,025 mm 0 W/m -0,1 C 3,9 C 0,0 km/h (0 Bft) 100 %
26.03.2017 05:10 3,7 C 3,7 C 3,9 C 76 % 1020,5 hPa 0,0 l/m 0,0 km/h (0 Bft) N 0 0 min 0,000 mm 0 W/m -0,1 C 3,7 C 0,0 km/h (0 Bft) 100 %
26.03.2017 05:20 3,5 C 3,5 C 3,7 C 77 % 1020,5 hPa 0,0 l/m 0,0 km/h (0 Bft) N-NO 22 0 min 0,000 mm 0 W/m -0,1 C 3,5 C 1,6 km/h (1 Bft) 100 %
26.03.2017 05:30 3,3 C 3,3 C 3,5 C 76 % 1020,4 hPa 0,0 l/m 0,0 km/h (0 Bft) N 0 0 min 0,000 mm 0 W/m -0,5 C 3,3 C 0,0 km/h (0 Bft) 100 %
26.03.2017 05:40 3,3 C 3,3 C 3,3 C 77 % 1020,5 hPa 0,0 l/m 0,0 km/h (0 Bft) N-NO 22 0 min 0,000 mm 0 W/m -0,3 C 3,3 C 1,6 km/h (1 Bft) 100 %
26.03.2017 05:50 3,3 C 3,3 C 3,3 C 78 % 1020,7 hPa 0,0 l/m 0,0 km/h (0 Bft) N 0 0 min 0,000 mm 0 W/m -0,2 C 3,3 C 0,0 km/h (0 Bft) 100 %
26.03.2017 06:00 3,1 C 3,1 C 3,3 C 78 % 1020,7 hPa 0,0 l/m 0,0 km/h (0 Bft) N 0 0 min 0,000 mm 0 W/m -0,4 C 3,1 C 0,0 km/h (0 Bft) 100 %
26.03.2017 06:10 2,9 C 2,9 C 3,1 C 78 % 1020,6 hPa 0,0 l/m 0,0 km/h (0 Bft) N 0 0 min 0,000 mm 0 W/m -0,5 C 2,9 C 0,0 km/h (0 Bft) 90 %
26.03.2017 06:20 2,8 C 2,8 C 2,9 C 78 % 1020,7 hPa 0,0 l/m 0,0 km/h (0 Bft) N-NO 22 0 min 0,000 mm 0 W/m -0,6 C 2,8 C 1,6 km/h (1 Bft) 100 %
26.03.2017 06:30 2,7 C 2,7 C 2,8 C 79 % 1020,7 hPa 0,0 l/m 0,0 km/h (0 Bft) N 0 0 min 0,000 mm 0 W/m -0,6 C 2,7 C 0,0 km/h (0 Bft) 100 %
26.03.2017 06:40 2,6 C 2,6 C 2,7 C 79 % 1020,7 hPa 0,0 l/m 0,0 km/h (0 Bft) N 0 0 min 0,000 mm 0 W/m -0,7 C 2,6 C 0,0 km/h (0 Bft) 100 %
26.03.2017 06:50 2,6 C 2,6 C 2,6 C 80 % 1020,8 hPa 0,0 l/m 0,0 km/h (0 Bft) N 0 0 min 0,000 mm 0 W/m -0,5 C 2,6 C 0,0 km/h (0 Bft) 99 %
26.03.2017 07:00 2,6 C 2,6 C 2,7 C 80 % 1020,8 hPa 0,0 l/m 0,0 km/h (0 Bft) N 0 0 min 0,000 mm 0 W/m -0,5 C 2,6 C 0,0 km/h (0 Bft) 99 %
26.03.2017 07:10 2,6 C 2,6 C 2,6 C 80 % 1021,1 hPa 0,0 l/m 0,0 km/h (0 Bft) N 0 0 min 0,000 mm 0 W/m -0,5 C 2,6 C 0,0 km/h (0 Bft) 98 %
26.03.2017 07:20 2,5 C 2,5 C 2,6 C 80 % 1021,2 hPa 0,0 l/m 0,0 km/h (0 Bft) N 0 0 min 0,000 mm 0 W/m -0,6 C 2,5 C 0,0 km/h (0 Bft) 97 %
26.03.2017 07:30 2,4 C 2,4 C 2,5 C 81 % 1021,2 hPa 0,0 l/m 0,0 km/h (0 Bft) N 0 0 min 0,000 mm 11 W/m -0,5 C 2,4 C 0,0 km/h (0 Bft) 97 %
26.03.2017 07:40 2,4 C 2,4 C 2,4 C 81 % 1021,4 hPa 0,0 l/m 0,0 km/h (0 Bft) N 360 0 min 0,000 mm 14 W/m -0,5 C 2,4 C 1,6 km/h (1 Bft) 97 %
26.03.2017 07:50 2,5 C 2,4 C 2,5 C 81 % 1021,4 hPa 0,0 l/m 0,0 km/h (0 Bft) N 360 0 min 0,000 mm 25 W/m -0,4 C 2,5 C 1,6 km/h (1 Bft) 88 %
26.03.2017 08:00 2,7 C 2,5 C 2,7 C 81 % 1021,5 hPa 0,0 l/m 0,0 km/h (0 Bft) N 0 0 min 0,000 mm 33 W/m -0,2 C 2,7 C 0,0 km/h (0 Bft) 98 %
26.03.2017 08:10 2,7 C 2,7 C 2,7 C 81 % 1021,6 hPa 0,0 l/m 0,0 km/h (0 Bft) N 0 0 min 0,000 mm 39 W/m -0,2 C 2,7 C 0,0 km/h (0 Bft) 98 %
26.03.2017 08:20 2,7 C 2,7 C 2,7 C 81 % 1021,7 hPa 0,0 l/m 0,0 km/h (0 Bft) N 0 0 min 0,000 mm 49 W/m -0,2 C 2,7 C 0,0 km/h (0 Bft) 98 %
26.03.2017 08:30 2,8 C 2,7 C 2,8 C 81 % 1021,7 hPa 0,0 l/m 0,0 km/h (0 Bft) N 360 0 min 0,000 mm 60 W/m -0,1 C 2,8 C 1,6 km/h (1 Bft) 97 %
26.03.2017 08:40 3,1 C 2,8 C 3,1 C 82 % 1021,9 hPa 0,0 l/m 0,0 km/h (0 Bft) N 0 0 min 0,000 mm 137 W/m 0,3 C 3,1 C 0,0 km/h (0 Bft) 97 %
26.03.2017 08:50 3,8 C 3,1 C 3,8 C 81 % 1021,9 hPa 0,0 l/m 0,0 km/h (0 Bft) N 0 0 min 0,000 mm 151 W/m 0,8 C 3,8 C 0,0 km/h (0 Bft) 98 %
26.03.2017 09:00 4,6 C 3,8 C 4,6 C 79 % 1021,9 hPa 0,0 l/m 0,0 km/h (0 Bft) N 360 10 min 0,025 mm 190 W/m 1,3 C 4,6 C 3,2 km/h (1 Bft) 97 %
26.03.2017 09:10 5,4 C 4,6 C 5,4 C 75 % 1021,9 hPa 0,0 l/m 0,0 km/h (0 Bft) N 360 10 min 0,000 mm 246 W/m 1,3 C 5,4 C 1,6 km/h (1 Bft) 98 %
26.03.2017 09:20 6,1 C 5,4 C 6,1 C 72 % 1021,8 hPa 0,0 l/m 0,0 km/h (0 Bft) N-NO 22 10 min 0,000 mm 269 W/m 1,4 C 6,1 C 4,8 km/h (1 Bft) 98 %
26.03.2017 09:30 6,6 C 6,1 C 6,6 C 71 % 1021,9 hPa 0,0 l/m 0,0 km/h (0 Bft) N-NO 22 10 min 0,000 mm 267 W/m 1,7 C 6,6 C 4,8 km/h (1 Bft) 98 %
26.03.2017 09:40 7,0 C 6,6 C 7,0 C 69 % 1022,0 hPa 0,0 l/m 0,0 km/h (0 Bft) N-NO 22 10 min 0,000 mm 318 W/m 1,7 C 7,0 C 6,4 km/h (2 Bft) 97 %
26.03.2017 09:50 7,3 C 7,0 C 7,3 C 67 % 1022,2 hPa 0,0 l/m 3,2 km/h (1 Bft) NO 45 10 min 0,000 mm 373 W/m 1,6 C 7,3 C 8,0 km/h (2 Bft) 98 %
26.03.2017 10:00 7,6 C 7,3 C 7,6 C 66 % 1022,4 hPa 0,0 l/m 4,8 km/h (1 Bft) NO 45 10 min 0,127 mm 388 W/m 1,7 C 7,6 C 11,3 km/h (2 Bft) 98 %
26.03.2017 10:10 7,8 C 7,6 C 7,8 C 65 % 1022,5 hPa 0,0 l/m 6,4 km/h (2 Bft) NO 45 10 min 0,000 mm 411 W/m 1,6 C 7,8 C 11,3 km/h (2 Bft) 96 %
26.03.2017 10:20 8,1 C 7,8 C 8,1 C 65 % 1022,6 hPa 0,0 l/m 1,6 km/h (1 Bft) NO 45 10 min 0,000 mm 446 W/m 1,9 C 8,1 C 8,0 km/h (2 Bft) 98 %
26.03.2017 10:30 8,4 C 8,1 C 8,4 C 64 % 1022,5 hPa 0,0 l/m 3,2 km/h (1 Bft) NO 45 10 min 0,000 mm 473 W/m 2,0 C 8,4 C 8,0 km/h (2 Bft) 100 %
26.03.2017 10:40 8,8 C 8,4 C 8,8 C 64 % 1022,5 hPa 0,0 l/m 1,6 km/h (1 Bft) NO 45 10 min 0,000 mm 499 W/m 2,4 C 8,8 C 8,0 km/h (2 Bft) 100 %
26.03.2017 10:50 9,3 C 8,8 C 9,3 C 64 % 1022,5 hPa 0,0 l/m 1,6 km/h (1 Bft) NO 45 10 min 0,000 mm 533 W/m 2,8 C 9,3 C 8,0 km/h (2 Bft) 100 %
26.03.2017 11:00 9,7 C 9,3 C 9,7 C 59 % 1022,5 hPa 0,0 l/m 1,6 km/h (1 Bft) O-NO 67 10 min 0,203 mm 534 W/m 2,1 C 9,7 C 11,3 km/h (2 Bft) 100 %
26.03.2017 11:10 9,9 C 9,7 C 9,9 C 60 % 1022,5 hPa 0,0 l/m 1,6 km/h (1 Bft) NO 45 10 min 0,000 mm 564 W/m 2,5 C 9,9 C 8,0 km/h (2 Bft) 100 %
26.03.2017 11:20 10,1 C 10,0 C 10,1 C 60 % 1022,5 hPa 0,0 l/m 1,6 km/h (1 Bft) NO 45 10 min 0,000 mm 605 W/m 2,7 C 10,1 C 16,1 km/h (3 Bft) 100 %
26.03.2017 11:30 10,4 C 10,1 C 10,4 C 60 % 1022,5 hPa 0,0 l/m 1,6 km/h (1 Bft) NO 45 10 min 0,000 mm 592 W/m 3,0 C 10,4 C 8,0 km/h (2 Bft) 99 %
26.03.2017 11:40 10,7 C 10,4 C 10,7 C 59 % 1022,4 hPa 0,0 l/m 1,6 km/h (1 Bft) NO 45 10 min 0,000 mm 610 W/m 3,0 C 10,7 C 8,0 km/h (2 Bft) 100 %
26.03.2017 11:50 11,1 C 10,7 C 11,1 C 56 % 1022,4 hPa 0,0 l/m 0,0 km/h (0 Bft) NO 45 10 min 0,000 mm 636 W/m 2,7 C 11,1 C 6,4 km/h (2 Bft) 100 %
26.03.2017 12:00 11,3 C 11,1 C 11,3 C 57 % 1022,4 hPa 0,0 l/m 0,0 km/h (0 Bft) O-NO 67 10 min 0,279 mm 645 W/m 3,1 C 11,3 C 8,0 km/h (2 Bft) 100 %
26.03.2017 12:10 11,4 C 11,3 C 11,4 C 58 % 1022,4 hPa 0,0 l/m 1,6 km/h (1 Bft) NO 45 10 min 0,000 mm 677 W/m 3,4 C 11,4 C 9,7 km/h (2 Bft) 100 %
26.03.2017 12:20 11,6 C 11,4 C 11,6 C 57 % 1022,4 hPa 0,0 l/m 1,6 km/h (1 Bft) NO 45 10 min 0,000 mm 694 W/m 3,4 C 11,6 C 9,7 km/h (2 Bft) 100 %
26.03.2017 12:30 11,9 C 11,6 C 11,9 C 58 % 1022,4 hPa 0,0 l/m 1,6 km/h (1 Bft) N-NO 22 10 min 0,000 mm 691 W/m 3,9 C 11,9 C 6,4 km/h (2 Bft) 100 %
26.03.2017 12:40 12,3 C 11,9 C 12,3 C 55 % 1022,2 hPa 0,0 l/m 1,6 km/h (1 Bft) N-NW 337 10 min 0,000 mm 708 W/m 3,5 C 12,3 C 6,4 km/h (2 Bft) 100 %
26.03.2017 12:50 12,3 C 12,3 C 12,3 C 56 % 1022,4 hPa 0,0 l/m 0,0 km/h (0 Bft) NO 45 10 min 0,000 mm 714 W/m 3,8 C 12,3 C 8,0 km/h (2 Bft) 100 %
26.03.2017 13:00 12,4 C 12,3 C 12,4 C 55 % 1022,3 hPa 0,0 l/m 0,0 km/h (0 Bft) N-NO 22 10 min 0,308 mm 698 W/m 3,6 C 12,4 C 0,0 km/h (0 Bft) 100 %
26.03.2017 13:10 12,6 C 12,4 C 12,6 C 54 % 1022,1 hPa 0,0 l/m 0,1 km/h (0 Bft) N-NO 28 10 min 0,000 mm 731 W/m 3,5 C 12,6 C 3,2 km/h (1 Bft) 100 %
26.03.2017 13:20 12,7 C 12,6 C 12,7 C 53 % 1022,1 hPa 0,0 l/m 2,3 km/h (1 Bft) O-NO 65 10 min 0,000 mm 729 W/m 3,4 C 12,7 C 9,7 km/h (2 Bft) 100 %
26.03.2017 13:30 12,8 C 12,6 C 12,8 C 53 % 1022,2 hPa 0,0 l/m 1,5 km/h (1 Bft) NO 53 10 min 0,000 mm 726 W/m 3,5 C 12,8 C 8,0 km/h (2 Bft) 100 %
26.03.2017 13:40 13,2 C 12,8 C 13,2 C 53 % 1022,1 hPa 0,0 l/m 2,3 km/h (1 Bft) NO 36 10 min 0,000 mm 729 W/m 3,8 C 13,2 C 11,3 km/h (2 Bft) 99 %
26.03.2017 13:50 13,3 C 13,2 C 13,3 C 51 % 1022,1 hPa 0,0 l/m 2,2 km/h (1 Bft) O-NO 64 10 min 0,000 mm 686 W/m 3,4 C 13,3 C 9,7 km/h (2 Bft) 100 %
26.03.2017 14:00 13,6 C 13,3 C 13,6 C 51 % 1021,9 hPa 0,0 l/m 1,1 km/h (1 Bft) N-NO 26 10 min 0,355 mm 719 W/m 3,7 C 13,6 C 11,3 km/h (2 Bft) 100 %
26.03.2017 14:10 13,9 C 13,6 C 13,9 C 49 % 1021,8 hPa 0,0 l/m 0,8 km/h (0 Bft) N-NO 25 10 min 0,000 mm 705 W/m 3,4 C 13,9 C 8,0 km/h (2 Bft) 100 %
26.03.2017 14:20 14,1 C 13,9 C 14,1 C 50 % 1021,7 hPa 0,0 l/m 1,3 km/h (1 Bft) N 351 10 min 0,000 mm 682 W/m 3,8 C 14,1 C 8,0 km/h (2 Bft) 100 %
26.03.2017 14:30 14,1 C 14,1 C 14,2 C 51 % 1021,6 hPa 0,0 l/m 1,4 km/h (1 Bft) N-NO 33 10 min 0,000 mm 617 W/m 4,1 C 14,1 C 9,7 km/h (2 Bft) 100 %
26.03.2017 14:40 14,3 C 14,1 C 14,3 C 49 % 1021,6 hPa 0,0 l/m 1,1 km/h (1 Bft) O-NO 59 10 min 0,000 mm 680 W/m 3,7 C 14,3 C 14,5 km/h (3 Bft) 100 %
26.03.2017 14:50 14,2 C 14,2 C 14,3 C 48 % 1021,4 hPa 0,0 l/m 2,7 km/h (1 Bft) N-NO 27 10 min 0,000 mm 666 W/m 3,4 C 14,2 C 17,7 km/h (3 Bft) 100 %
26.03.2017 15:00 14,4 C 14,2 C 14,4 C 52 % 1021,3 hPa 0,0 l/m 0,9 km/h (0 Bft) NW 326 10 min 0,356 mm 661 W/m 4,7 C 14,4 C 9,7 km/h (2 Bft) 100 %
26.03.2017 15:10 14,7 C 14,4 C 14,8 C 48 % 1021,3 hPa 0,0 l/m 2,0 km/h (1 Bft) NO 40 10 min 0,000 mm 638 W/m 3,8 C 14,7 C 11,3 km/h (2 Bft) 100 %
26.03.2017 15:20 14,6 C 14,6 C 14,7 C 46 % 1021,3 hPa 0,0 l/m 1,8 km/h (1 Bft) O-NO 61 10 min 0,000 mm 610 W/m 3,1 C 14,6 C 14,5 km/h (3 Bft) 100 %
26.03.2017 15:30 14,6 C 14,6 C 14,6 C 48 % 1021,2 hPa 0,0 l/m 0,5 km/h (0 Bft) N-NO 12 10 min 0,000 mm 598 W/m 3,7 C 14,6 C 6,4 km/h (2 Bft) 99 %
26.03.2017 15:40 14,4 C 14,4 C 14,6 C 49 % 1021,3 hPa 0,0 l/m 0,8 km/h (0 Bft) N-NO 24 10 min 0,000 mm 441 W/m 3,8 C 14,4 C 8,0 km/h (2 Bft) 100 %
26.03.2017 15:50 14,4 C 14,4 C 14,4 C 51 % 1021,4 hPa 0,0 l/m 0,4 km/h (0 Bft) NO 48 0 min 0,000 mm 83 W/m 4,4 C 14,4 C 8,0 km/h (2 Bft) 99 %
26.03.2017 16:00 14,4 C 14,4 C 14,4 C 47 % 1021,4 hPa 0,0 l/m 2,3 km/h (1 Bft) N 355 0 min 0,229 mm 74 W/m 3,2 C 14,4 C 19,3 km/h (3 Bft) 100 %
26.03.2017 16:10 14,3 C 14,3 C 14,4 C 48 % 1021,4 hPa 0,0 l/m 2,7 km/h (1 Bft) N-NO 23 0 min 0,000 mm 67 W/m 3,4 C 14,3 C 11,3 km/h (2 Bft) 99 %
26.03.2017 16:20 14,3 C 14,3 C 14,3 C 49 % 1021,4 hPa 0,0 l/m 2,2 km/h (1 Bft) NO 44 0 min 0,000 mm 67 W/m 3,7 C 14,3 C 11,3 km/h (2 Bft) 100 %
26.03.2017 16:30 14,2 C 14,2 C 14,3 C 50 % 1021,3 hPa 0,0 l/m 0,9 km/h (0 Bft) N-NO 21 0 min 0,000 mm 69 W/m 3,9 C 14,2 C 11,3 km/h (2 Bft) 99 %
26.03.2017 16:40 14,1 C 14,1 C 14,2 C 51 % 1021,4 hPa 0,0 l/m 2,0 km/h (1 Bft) O-NO 57 0 min 0,000 mm 62 W/m 4,1 C 14,1 C 16,1 km/h (3 Bft) 100 %
26.03.2017 16:50 14,1 C 14,1 C 14,1 C 50 % 1021,4 hPa 0,0 l/m 1,9 km/h (1 Bft) NO 37 0 min 0,000 mm 65 W/m 3,8 C 14,1 C 14,5 km/h (3 Bft) 100 %
26.03.2017 17:00 14,0 C 14,0 C 14,1 C 50 % 1021,4 hPa 0,0 l/m 1,9 km/h (1 Bft) O-NO 58 0 min 0,050 mm 60 W/m 3,7 C 14,0 C 17,7 km/h (3 Bft) 100 %
26.03.2017 17:10 13,9 C 13,9 C 14,0 C 50 % 1021,4 hPa 0,0 l/m 2,3 km/h (1 Bft) NO 39 0 min 0,000 mm 60 W/m 3,7 C 13,9 C 8,0 km/h (2 Bft) 100 %
26.03.2017 17:20 13,7 C 13,7 C 13,9 C 51 % 1021,3 hPa 0,0 l/m 2,3 km/h (1 Bft) NO 39 0 min 0,000 mm 58 W/m 3,8 C 13,7 C 11,3 km/h (2 Bft) 99 %
26.03.2017 17:30 13,7 C 13,7 C 13,7 C 51 % 1021,2 hPa 0,0 l/m 2,4 km/h (1 Bft) NO 43 0 min 0,000 mm 51 W/m 3,8 C 13,7 C 17,7 km/h (3 Bft) 99 %
26.03.2017 17:40 13,7 C 13,7 C 13,8 C 52 % 1021,3 hPa 0,0 l/m 0,5 km/h (0 Bft) O-NO 61 0 min 0,000 mm 51 W/m 4,0 C 13,7 C 11,3 km/h (2 Bft) 100 %
26.03.2017 17:50 13,7 C 13,7 C 13,8 C 52 % 1021,4 hPa 0,0 l/m 1,5 km/h (1 Bft) NO 38 0 min 0,000 mm 49 W/m 4,0 C 13,7 C 8,0 km/h (2 Bft) 100 %
26.03.2017 18:00 13,5 C 13,5 C 13,7 C 52 % 1021,2 hPa 0,0 l/m 3,3 km/h (1 Bft) NO 36 0 min 0,051 mm 44 W/m 3,8 C 13,5 C 11,3 km/h (2 Bft) 100 %
26.03.2017 18:10 13,4 C 13,4 C 13,5 C 53 % 1021,3 hPa 0,0 l/m 0,6 km/h (0 Bft) N-NO 33 0 min 0,000 mm 40 W/m 4,0 C 13,4 C 9,7 km/h (2 Bft) 100 %
26.03.2017 18:20 13,3 C 13,3 C 13,4 C 51 % 1021,5 hPa 0,0 l/m 1,3 km/h (1 Bft) O-SO 107 0 min 0,000 mm 39 W/m 3,4 C 13,3 C 9,7 km/h (2 Bft) 98 %
26.03.2017 18:30 13,2 C 13,2 C 13,3 C 52 % 1021,4 hPa 0,0 l/m 1,2 km/h (1 Bft) SO 140 0 min 0,000 mm 37 W/m 3,6 C 13,2 C 9,7 km/h (2 Bft) 100 %
26.03.2017 18:40 13,1 C 13,1 C 13,3 C 52 % 1021,4 hPa 0,0 l/m 0,7 km/h (0 Bft) O 96 0 min 0,000 mm 33 W/m 3,5 C 13,1 C 9,7 km/h (2 Bft) 100 %
26.03.2017 18:50 12,9 C 12,9 C 13,1 C 52 % 1021,5 hPa 0,0 l/m 0,0 km/h (0 Bft) O-SO 117 0 min 0,000 mm 28 W/m 3,3 C 12,9 C 1,6 km/h (1 Bft) 100 %
26.03.2017 19:00 12,8 C 12,8 C 12,9 C 52 % 1021,5 hPa 0,0 l/m 0,2 km/h (0 Bft) O 96 0 min 0,026 mm 23 W/m 3,2 C 12,8 C 6,4 km/h (2 Bft) 100 %
26.03.2017 19:10 12,6 C 12,6 C 12,8 C 54 % 1021,6 hPa 0,0 l/m 0,1 km/h (0 Bft) O 86 0 min 0,000 mm 19 W/m 3,5 C 12,6 C 4,8 km/h (1 Bft) 100 %
26.03.2017 19:20 12,3 C 12,3 C 12,6 C 54 % 1021,6 hPa 0,0 l/m 0,4 km/h (0 Bft) N-NO 25 0 min 0,000 mm 16 W/m 3,3 C 12,3 C 9,7 km/h (2 Bft) 100 %
26.03.2017 19:30 12,2 C 12,2 C 12,3 C 54 % 1021,8 hPa 0,0 l/m 0,0 km/h (0 Bft) O-NO 67 0 min 0,000 mm 9 W/m 3,2 C 12,2 C 0,0 km/h (0 Bft) 100 %
26.03.2017 19:40 11,9 C 11,9 C 12,2 C 54 % 1021,8 hPa 0,0 l/m 0,0 km/h (0 Bft) O-NO 67 0 min 0,000 mm 0 W/m 2,9 C 11,9 C 0,0 km/h (0 Bft) 100 %
26.03.2017 19:50 11,6 C 11,6 C 11,9 C 55 % 1021,9 hPa 0,0 l/m 0,0 km/h (0 Bft) O-NO 64 0 min 0,000 mm 0 W/m 2,9 C 11,6 C 1,6 km/h (1 Bft) 100 %
26.03.2017 20:00 11,3 C 11,3 C 11,6 C 56 % 1022,0 hPa 0,0 l/m 0,0 km/h (0 Bft) O-NO 64 0 min 0,025 mm 0 W/m 2,8 C 11,3 C 0,0 km/h (0 Bft) 100 %
26.03.2017 20:10 11,0 C 11,0 C 11,3 C 57 % 1022,1 hPa 0,0 l/m 0,0 km/h (0 Bft) O-NO 64 0 min 0,000 mm 0 W/m 2,8 C 11,0 C 0,0 km/h (0 Bft) 100 %
26.03.2017 20:20 10,8 C 10,8 C 11,0 C 57 % 1022,2 hPa 0,0 l/m 0,3 km/h (0 Bft) O-NO 63 0 min 0,000 mm 0 W/m 2,6 C 10,8 C 8,0 km/h (2 Bft) 91 %
26.03.2017 20:30 10,6 C 10,6 C 10,8 C 57 % 1022,2 hPa 0,0 l/m 0,0 km/h (0 Bft) O-NO 65 0 min 0,000 mm 0 W/m 2,4 C 10,6 C 1,6 km/h (1 Bft) 100 %
26.03.2017 20:40 10,5 C 10,5 C 10,6 C 57 % 1022,2 hPa 0,0 l/m 0,1 km/h (0 Bft) N-NO 19 0 min 0,000 mm 0 W/m 2,3 C 10,5 C 4,8 km/h (1 Bft) 100 %
26.03.2017 20:50 10,3 C 10,3 C 10,5 C 58 % 1022,4 hPa 0,0 l/m 0,1 km/h (0 Bft) NO 34 0 min 0,000 mm 0 W/m 2,4 C 10,3 C 4,8 km/h (1 Bft) 100 %
26.03.2017 21:00 10,1 C 10,1 C 10,3 C 58 % 1022,3 hPa 0,0 l/m 0,0 km/h (0 Bft) O-NO 78 0 min 0,025 mm 0 W/m 2,2 C 10,1 C 1,6 km/h (1 Bft) 100 %
26.03.2017 21:10 10,1 C 10,0 C 10,1 C 58 % 1022,6 hPa 0,0 l/m 0,0 km/h (0 Bft) O-NO 67 0 min 0,000 mm 0 W/m 2,2 C 10,1 C 6,4 km/h (2 Bft) 100 %
26.03.2017 21:20 9,9 C 9,9 C 10,1 C 58 % 1022,7 hPa 0,0 l/m 0,0 km/h (0 Bft) O 90 0 min 0,000 mm 0 W/m 2,0 C 9,9 C 4,8 km/h (1 Bft) 100 %
26.03.2017 21:30 9,9 C 9,9 C 9,9 C 58 % 1022,8 hPa 0,0 l/m 1,6 km/h (1 Bft) O-NO 67 0 min 0,000 mm 0 W/m 2,0 C 9,9 C 6,4 km/h (2 Bft) 100 %
26.03.2017 21:40 9,9 C 9,9 C 9,9 C 58 % 1022,8 hPa 0,0 l/m 1,6 km/h (1 Bft) O 90 0 min 0,000 mm 0 W/m 2,0 C 9,9 C 4,8 km/h (1 Bft) 100 %
26.03.2017 21:50 9,8 C 9,8 C 9,9 C 58 % 1022,9 hPa 0,0 l/m 0,0 km/h (0 Bft) O 90 0 min 0,000 mm 0 W/m 1,9 C 9,8 C 1,6 km/h (1 Bft) 100 %
26.03.2017 22:00 9,7 C 9,7 C 9,8 C 60 % 1023,0 hPa 0,0 l/m 0,0 km/h (0 Bft) NO 45 0 min 0,025 mm 0 W/m 2,3 C 9,7 C 8,0 km/h (2 Bft) 100 %
26.03.2017 22:10 9,3 C 9,3 C 9,7 C 61 % 1023,0 hPa 0,0 l/m 0,0 km/h (0 Bft) NO 45 0 min 0,000 mm 0 W/m 2,2 C 9,3 C 4,8 km/h (1 Bft) 100 %
26.03.2017 22:20 9,1 C 9,1 C 9,3 C 61 % 1023,1 hPa 0,0 l/m 0,0 km/h (0 Bft) NO 45 0 min 0,000 mm 0 W/m 2,0 C 9,1 C 3,2 km/h (1 Bft) 100 %
26.03.2017 22:30 9,0 C 9,0 C 9,1 C 62 % 1023,2 hPa 0,0 l/m 0,0 km/h (0 Bft) NO 45 0 min 0,000 mm 0 W/m 2,1 C 9,0 C 1,6 km/h (1 Bft) 100 %
26.03.2017 22:40 8,8 C 8,8 C 9,0 C 62 % 1023,2 hPa 0,0 l/m 0,0 km/h (0 Bft) N-NO 22 0 min 0,000 mm 0 W/m 1,9 C 8,8 C 8,0 km/h (2 Bft) 100 %
26.03.2017 22:50 8,7 C 8,7 C 8,8 C 62 % 1023,4 hPa 0,0 l/m 1,6 km/h (1 Bft) O 90 0 min 0,000 mm 0 W/m 1,8 C 8,7 C 8,0 km/h (2 Bft) 99 %
26.03.2017 23:00 8,7 C 8,6 C 8,7 C 60 % 1023,4 hPa 0,0 l/m 3,2 km/h (1 Bft) O-NO 67 0 min 0,025 mm 0 W/m 1,4 C 8,7 C 17,7 km/h (3 Bft) 100 %
26.03.2017 23:10 8,9 C 8,7 C 8,9 C 59 % 1023,4 hPa 0,0 l/m 3,2 km/h (1 Bft) O-NO 67 0 min 0,000 mm 0 W/m 1,3 C 8,9 C 14,5 km/h (3 Bft) 100 %
26.03.2017 23:20 8,9 C 8,9 C 8,9 C 57 % 1023,4 hPa 0,0 l/m 3,2 km/h (1 Bft) O-NO 67 0 min 0,000 mm 0 W/m 0,9 C 8,9 C 8,0 km/h (2 Bft) 100 %
26.03.2017 23:30 8,9 C 8,9 C 9,0 C 57 % 1023,4 hPa 0,0 l/m 3,2 km/h (1 Bft) O 90 0 min 0,000 mm 0 W/m 0,9 C 8,9 C 16,1 km/h (3 Bft) 100 %
26.03.2017 23:40 8,8 C 8,8 C 8,9 C 56 % 1023,6 hPa 0,0 l/m 3,2 km/h (1 Bft) O 90 0 min 0,000 mm 0 W/m 0,5 C 8,8 C 9,7 km/h (2 Bft) 100 %
26.03.2017 23:50 8,6 C 8,6 C 8,8 C 56 % 1023,6 hPa 0,0 l/m 1,6 km/h (1 Bft) O 90 0 min 0,000 mm 0 W/m 0,3 C 8,6 C 9,7 km/h (2 Bft) 100 %
_ Min-Zeit 07:30 07:30 07:40 15:20 04:00 - 00:00 - - - - - 06:40 07:30 01:00 07:50
Minimum _ 2,4 C 2,4 C 2,4 C 46 % 1020,2 hPa - 0,0 km/h (0 Bft) - - - - - -0,7 C 2,4 C 0,0 km/h (0 Bft) 88 %
_ Max-Zeit 15:10 15:20 15:10 08:40 23:40 00:00 10:10 - - 09:00 15:00 13:10 15:00 15:10 16:00 00:00
Maximum _ 14,8 C 14,6 C 14,8 C 82 % 1023,6 hPa 0,0 l/m 6,4 km/h
NO (2 Bft)
- - 10 min 0,356 mm 731 W/m 4,7 C 14,7 C 19,3 km/h
N-NO (3 Bft)
100 %
Durchschnitt _ 8,9 C 8,8 C 9,0 C 63 % 1021,7 hPa #0,0 l/m 0,9 km/h (0 Bft) NO - #6:50 h #2,234 mm 343 W/m 1,9 C 8,9 C 6,1 km/h (2 Bft) 99 %
PRIVATE WETTERSTATION BILLIGHEIM-ALLFELD - www.neckar-odenwald-wetter.de - Holger Sonntag